createdAt,value
2022-11-03T00:00:16.172Z,1010.39
2022-11-03T00:01:16.219Z,1010.39
2022-11-03T00:02:16.205Z,1010.36
2022-11-03T00:03:16.101Z,1010.35
2022-11-03T00:04:16.094Z,1010.30
2022-11-03T00:05:16.083Z,1010.28
2022-11-03T00:06:16.091Z,1010.27
2022-11-03T00:07:16.060Z,1010.22
2022-11-03T00:08:16.071Z,1010.24
2022-11-03T00:09:16.046Z,1010.22
2022-11-03T00:10:16.039Z,1010.23
2022-11-03T00:11:16.049Z,1010.15
2022-11-03T00:12:16.037Z,1010.17
2022-11-03T00:13:15.990Z,1010.15
2022-11-03T00:14:15.992Z,1010.17
2022-11-03T00:15:15.973Z,1010.15
2022-11-03T00:16:15.993Z,1010.17
2022-11-03T00:17:15.952Z,1010.14
2022-11-03T00:18:15.932Z,1010.11
2022-11-03T00:19:15.974Z,1010.07
2022-11-03T00:20:15.914Z,1010.04
2022-11-03T00:21:15.906Z,1010.03
2022-11-03T00:22:15.892Z,1010.02
2022-11-03T00:23:15.883Z,1010.00
2022-11-03T00:24:15.882Z,1010.01
2022-11-03T00:25:15.891Z,1010.01
2022-11-03T00:26:15.863Z,1009.99
2022-11-03T00:27:15.834Z,1009.99
2022-11-03T00:28:15.835Z,1010.02
2022-11-03T00:29:15.845Z,1010.05
2022-11-03T00:30:15.804Z,1010.03
2022-11-03T00:31:15.803Z,1010.04
2022-11-03T00:32:15.805Z,1010.08
2022-11-03T00:33:15.771Z,1010.05
2022-11-03T00:34:15.762Z,1010.00
2022-11-03T00:35:15.753Z,1010.04
2022-11-03T00:36:15.743Z,1010.05
2022-11-03T00:37:15.725Z,1010.05
2022-11-03T00:38:15.744Z,1010.01
2022-11-03T00:39:15.704Z,1009.98
2022-11-03T00:40:15.696Z,1010.00
2022-11-03T00:41:15.683Z,1010.01
2022-11-03T00:42:15.694Z,1010.02
2022-11-03T00:43:15.675Z,1010.01
2022-11-03T00:44:15.646Z,1010.01
2022-11-03T00:45:15.634Z,1010.06
2022-11-03T00:46:15.626Z,1010.02
2022-11-03T00:47:18.940Z,1010.04
2022-11-03T00:48:16.625Z,1010.06
2022-11-03T00:49:15.586Z,1009.99
2022-11-03T00:50:15.594Z,1010.01
2022-11-03T00:51:15.576Z,1010.03
2022-11-03T00:52:15.556Z,1009.98
2022-11-03T00:53:15.574Z,1009.98
2022-11-03T00:54:15.537Z,1009.97
2022-11-03T00:55:15.524Z,1009.98
2022-11-03T00:56:15.534Z,1009.95
2022-11-03T00:57:15.507Z,1009.94
2022-11-03T00:58:15.516Z,1009.97
2022-11-03T00:59:15.477Z,1009.92
2022-11-03T01:00:15.476Z,1009.90
2022-11-03T01:01:15.618Z,1009.89
2022-11-03T01:02:15.540Z,1009.83
2022-11-03T01:03:15.460Z,1009.82
2022-11-03T01:04:15.461Z,1009.90
2022-11-03T01:05:15.437Z,1009.83
2022-11-03T01:06:15.397Z,1009.82
2022-11-03T01:07:15.395Z,1009.91
2022-11-03T01:08:15.400Z,1009.86
2022-11-03T01:09:15.365Z,1009.83
2022-11-03T01:10:15.378Z,1009.88
2022-11-03T01:11:15.349Z,1009.86
2022-11-03T01:12:15.340Z,1009.79
2022-11-03T01:13:15.326Z,1009.79
2022-11-03T01:14:15.316Z,1009.79
2022-11-03T01:15:15.331Z,1009.76
2022-11-03T01:16:15.309Z,1009.73
2022-11-03T01:17:15.278Z,1009.79
2022-11-03T01:18:15.280Z,1009.78
2022-11-03T01:19:15.265Z,1009.79
2022-11-03T01:20:15.274Z,1009.77
2022-11-03T01:21:15.267Z,1009.75
2022-11-03T01:22:15.230Z,1009.82
2022-11-03T01:23:15.217Z,1009.78
2022-11-03T01:24:15.199Z,1009.78
2022-11-03T01:25:15.196Z,1009.73
2022-11-03T01:26:15.177Z,1009.74
2022-11-03T01:27:15.193Z,1009.69
2022-11-03T01:28:15.178Z,1009.75
2022-11-03T01:29:15.148Z,1009.74
2022-11-03T01:30:15.139Z,1009.76
2022-11-03T01:31:15.127Z,1009.76
2022-11-03T01:32:15.151Z,1009.75
2022-11-03T01:33:15.100Z,1009.71
2022-11-03T01:34:15.089Z,1009.74
2022-11-03T01:35:15.078Z,1009.72
2022-11-03T01:36:15.068Z,1009.72
2022-11-03T01:37:15.058Z,1009.72
2022-11-03T01:38:15.073Z,1009.76
2022-11-03T01:39:15.038Z,1009.69
2022-11-03T01:40:15.021Z,1009.67
2022-11-03T01:41:15.018Z,1009.63
2022-11-03T01:42:15.020Z,1009.66
2022-11-03T01:43:14.997Z,1009.65
2022-11-03T01:44:14.981Z,1009.58
2022-11-03T01:45:14.990Z,1009.59
2022-11-03T01:46:14.952Z,1009.58
2022-11-03T01:47:14.940Z,1009.56
2022-11-03T01:48:14.933Z,1009.49
2022-11-03T01:49:14.933Z,1009.51
2022-11-03T01:50:14.930Z,1009.44
2022-11-03T01:51:14.908Z,1009.45
2022-11-03T01:52:14.892Z,1009.43
2022-11-03T01:53:14.881Z,1009.41
2022-11-03T01:54:14.870Z,1009.36
2022-11-03T01:55:14.901Z,1009.35
2022-11-03T01:56:14.851Z,1009.30
2022-11-03T01:57:14.838Z,1009.29
2022-11-03T01:58:14.844Z,1009.26
2022-11-03T01:59:14.811Z,1009.19
2022-11-03T02:00:14.820Z,1009.21
2022-11-03T02:01:14.895Z,1009.20
2022-11-03T02:02:14.833Z,1009.18
2022-11-03T02:03:14.774Z,1009.16
2022-11-03T02:04:14.754Z,1009.12
2022-11-03T02:05:14.774Z,1009.13
2022-11-03T02:06:14.752Z,1009.11
2022-11-03T02:07:14.731Z,1009.08
2022-11-03T02:08:14.704Z,1009.06
2022-11-03T02:09:14.700Z,1009.02
2022-11-03T02:10:14.713Z,1009.00
2022-11-03T02:11:14.673Z,1008.92
2022-11-03T02:12:14.672Z,1008.97
2022-11-03T02:13:14.662Z,1008.90
2022-11-03T02:14:14.633Z,1008.95
2022-11-03T02:15:14.633Z,1008.93
2022-11-03T02:16:14.643Z,1008.93
2022-11-03T02:17:14.603Z,1008.93
2022-11-03T02:18:14.602Z,1008.90
2022-11-03T02:19:14.584Z,1008.85
2022-11-03T02:20:14.579Z,1008.93
2022-11-03T02:21:14.586Z,1008.85
2022-11-03T02:22:14.554Z,1008.89
2022-11-03T02:23:14.542Z,1008.88
2022-11-03T02:24:14.531Z,1008.86
2022-11-03T02:25:14.524Z,1008.84
2022-11-03T02:26:14.542Z,1008.86
2022-11-03T02:27:14.510Z,1008.85
2022-11-03T02:28:14.482Z,1008.83
2022-11-03T02:29:14.482Z,1008.75
2022-11-03T02:30:14.465Z,1008.73
2022-11-03T02:31:14.492Z,1008.72
2022-11-03T02:32:14.444Z,1008.71
2022-11-03T02:33:14.433Z,1008.74
2022-11-03T02:34:14.417Z,1008.74
2022-11-03T02:35:14.417Z,1008.70
2022-11-03T02:36:14.386Z,1008.71
2022-11-03T02:37:14.415Z,1008.73
2022-11-03T02:38:14.374Z,1008.70
2022-11-03T02:39:14.361Z,1008.67
2022-11-03T02:40:14.343Z,1008.63
2022-11-03T02:41:14.355Z,1008.63
2022-11-03T02:42:14.325Z,1008.65
2022-11-03T02:43:14.316Z,1008.61
2022-11-03T02:44:14.307Z,1008.60
2022-11-03T02:45:17.312Z,1008.58
2022-11-03T02:46:14.283Z,1008.55
2022-11-03T02:47:14.295Z,1008.56
2022-11-03T02:48:14.260Z,1008.55
2022-11-03T02:49:14.262Z,1008.53
2022-11-03T02:50:14.239Z,1008.51
2022-11-03T02:51:14.226Z,1008.47
2022-11-03T02:52:14.239Z,1008.50
2022-11-03T02:53:14.207Z,1008.48
2022-11-03T02:54:14.207Z,1008.44
2022-11-03T02:55:14.179Z,1008.41
2022-11-03T02:56:14.168Z,1008.40
2022-11-03T02:57:14.159Z,1008.37
2022-11-03T02:58:14.176Z,1008.36
2022-11-03T02:59:14.143Z,1008.32
2022-11-03T03:00:14.135Z,1008.31
2022-11-03T03:01:14.239Z,1008.30
2022-11-03T03:02:14.188Z,1008.28
2022-11-03T03:03:14.098Z,1008.31
2022-11-03T03:04:14.106Z,1008.31
2022-11-03T03:05:14.083Z,1008.25
2022-11-03T03:06:14.057Z,1008.28
2022-11-03T03:07:14.066Z,1008.27
2022-11-03T03:08:14.056Z,1008.27
2022-11-03T03:09:14.036Z,1008.26
2022-11-03T03:10:14.020Z,1008.20
2022-11-03T03:11:14.020Z,1008.25
2022-11-03T03:12:13.997Z,1008.22
2022-11-03T03:13:14.015Z,1008.22
2022-11-03T03:14:13.982Z,1008.24
2022-11-03T03:15:13.979Z,1008.24
2022-11-03T03:16:13.960Z,1008.20
2022-11-03T03:17:13.949Z,1008.18
2022-11-03T03:18:13.950Z,1008.18
2022-11-03T03:19:13.918Z,1008.18
2022-11-03T03:20:13.909Z,1008.16
2022-11-03T03:21:13.890Z,1008.12
2022-11-03T03:22:13.879Z,1008.15
2022-11-03T03:23:14.429Z,1008.13
2022-11-03T03:24:13.859Z,1008.17
2022-11-03T03:25:13.849Z,1008.14
2022-11-03T03:26:13.848Z,1008.15
2022-11-03T03:27:13.838Z,1008.11
2022-11-03T03:28:13.834Z,1008.13
2022-11-03T03:29:13.836Z,1008.13
2022-11-03T03:30:13.799Z,1008.10
2022-11-03T03:31:13.789Z,1008.10
2022-11-03T03:32:13.781Z,1008.08
2022-11-03T03:33:13.838Z,1008.06
2022-11-03T03:34:33.918Z,1008.12
2022-11-03T03:35:14.755Z,1008.12
2022-11-03T03:36:13.727Z,1008.11
2022-11-03T03:37:13.729Z,1008.07
2022-11-03T03:38:13.710Z,1008.06
2022-11-03T03:39:13.697Z,1008.06
2022-11-03T03:40:13.708Z,1008.06
2022-11-03T03:41:13.680Z,1008.08
2022-11-03T03:42:13.659Z,1008.08
2022-11-03T03:43:13.658Z,1008.06
2022-11-03T03:44:13.670Z,1008.03
2022-11-03T03:45:13.630Z,1008.01
2022-11-03T03:46:13.624Z,1008.01
2022-11-03T03:47:13.612Z,1007.97
2022-11-03T03:48:13.602Z,1008.01
2022-11-03T03:49:13.613Z,1008.03
2022-11-03T03:50:13.573Z,1007.99
2022-11-03T03:51:13.579Z,1007.98
2022-11-03T03:52:13.561Z,1007.95
2022-11-03T03:53:13.542Z,1008.00
2022-11-03T03:54:13.522Z,1007.98
2022-11-03T03:55:13.574Z,1007.94
2022-11-03T03:56:13.506Z,1007.95
2022-11-03T03:57:13.491Z,1007.94
2022-11-03T03:58:13.485Z,1007.92
2022-11-03T03:59:13.481Z,1007.86
2022-11-03T04:00:13.495Z,1007.86
2022-11-03T04:01:13.532Z,1007.81
2022-11-03T04:02:13.590Z,1007.79
2022-11-03T04:03:13.432Z,1007.78
2022-11-03T04:04:13.411Z,1007.81
2022-11-03T04:05:13.431Z,1007.78
2022-11-03T04:06:13.404Z,1007.77
2022-11-03T04:07:13.382Z,1007.78
2022-11-03T04:08:13.374Z,1007.76
2022-11-03T04:09:13.364Z,1007.76
2022-11-03T04:10:13.364Z,1007.70
2022-11-03T04:11:13.366Z,1007.73
2022-11-03T04:12:13.325Z,1007.66
2022-11-03T04:13:13.325Z,1007.67
2022-11-03T04:14:13.302Z,1007.71
2022-11-03T04:15:13.295Z,1007.69
2022-11-03T04:16:13.302Z,1007.72
2022-11-03T04:17:13.293Z,1007.67
2022-11-03T04:18:13.262Z,1007.66
2022-11-03T04:19:13.254Z,1007.64
2022-11-03T04:20:13.237Z,1007.66
2022-11-03T04:21:13.224Z,1007.62
2022-11-03T04:22:13.235Z,1007.60
2022-11-03T04:23:13.204Z,1007.59
2022-11-03T04:24:13.194Z,1007.58
2022-11-03T04:25:13.185Z,1007.57
2022-11-03T04:26:13.166Z,1007.57
2022-11-03T04:27:27.506Z,1007.59
2022-11-03T04:28:13.145Z,1007.58
2022-11-03T04:29:13.142Z,1007.61
2022-11-03T04:30:13.138Z,1007.58
2022-11-03T04:31:13.123Z,1007.57
2022-11-03T04:32:13.129Z,1007.61
2022-11-03T04:33:13.122Z,1007.55
2022-11-03T04:34:13.077Z,1007.54
2022-11-03T04:35:13.092Z,1007.54
2022-11-03T04:36:13.054Z,1007.54
2022-11-03T04:37:13.052Z,1007.53
2022-11-03T04:38:13.064Z,1007.54
2022-11-03T04:39:13.038Z,1007.54
2022-11-03T04:40:13.021Z,1007.55
2022-11-03T04:41:13.009Z,1007.56
2022-11-03T04:42:12.998Z,1007.53
2022-11-03T04:43:13.234Z,1007.56
2022-11-03T04:44:12.967Z,1007.49
2022-11-03T04:45:12.966Z,1007.50
2022-11-03T04:46:12.946Z,1007.47
2022-11-03T04:47:12.935Z,1007.48
2022-11-03T04:48:12.937Z,1007.42
2022-11-03T04:49:12.917Z,1007.46
2022-11-03T04:50:12.896Z,1007.41
2022-11-03T04:51:12.888Z,1007.42
2022-11-03T04:52:12.886Z,1007.43
2022-11-03T04:53:12.899Z,1007.42
2022-11-03T04:54:12.855Z,1007.34
2022-11-03T04:55:12.846Z,1007.31
2022-11-03T04:56:12.829Z,1007.32
2022-11-03T04:57:12.824Z,1007.31
2022-11-03T04:58:12.808Z,1007.29
2022-11-03T04:59:12.857Z,1007.26
2022-11-03T05:00:12.788Z,1007.23
2022-11-03T05:01:12.881Z,1007.27
2022-11-03T05:02:12.798Z,1007.22
2022-11-03T05:03:12.968Z,1007.24
2022-11-03T05:04:12.738Z,1007.25
2022-11-03T05:05:12.790Z,1007.27
2022-11-03T05:06:12.718Z,1007.23
2022-11-03T05:07:12.738Z,1007.27
2022-11-03T05:08:12.700Z,1007.25
2022-11-03T05:09:12.697Z,1007.17
2022-11-03T05:10:12.678Z,1007.22
2022-11-03T05:11:12.689Z,1007.21
2022-11-03T05:12:12.650Z,1007.23
2022-11-03T05:13:12.699Z,1007.17
2022-11-03T05:14:12.639Z,1007.12
2022-11-03T05:15:12.639Z,1007.12
2022-11-03T05:16:12.631Z,1007.14
2022-11-03T05:17:12.621Z,1007.11
2022-11-03T05:18:12.617Z,1007.12
2022-11-03T05:19:12.584Z,1007.08
2022-11-03T05:20:12.568Z,1007.02
2022-11-03T05:21:12.561Z,1006.99
2022-11-03T05:22:12.560Z,1006.97
2022-11-03T05:23:12.551Z,1006.95
2022-11-03T05:24:12.639Z,1006.95
2022-11-03T05:25:12.521Z,1006.93
2022-11-03T05:26:12.501Z,1006.86
2022-11-03T05:27:12.491Z,1006.85
2022-11-03T05:28:12.480Z,1006.87
2022-11-03T05:29:12.490Z,1006.87
2022-11-03T05:30:12.451Z,1006.89
2022-11-03T05:31:12.475Z,1006.84
2022-11-03T05:32:12.438Z,1006.87
2022-11-03T05:33:12.422Z,1006.86
2022-11-03T05:34:12.441Z,1006.81
2022-11-03T05:35:12.400Z,1006.77
2022-11-03T05:36:12.391Z,1006.80
2022-11-03T05:37:12.379Z,1006.74
2022-11-03T05:38:12.378Z,1006.78
2022-11-03T05:39:12.357Z,1006.78
2022-11-03T05:40:12.371Z,1006.71
2022-11-03T05:41:12.351Z,1006.77
2022-11-03T05:42:12.321Z,1006.68
2022-11-03T05:43:12.420Z,1006.71
2022-11-03T05:44:12.302Z,1006.71
2022-11-03T05:45:12.319Z,1006.71
2022-11-03T05:46:12.284Z,1006.67
2022-11-03T05:47:12.274Z,1006.71
2022-11-03T05:48:12.255Z,1006.70
2022-11-03T05:49:12.244Z,1006.69
2022-11-03T05:50:12.260Z,1006.68
2022-11-03T05:51:12.221Z,1006.69
2022-11-03T05:52:12.215Z,1006.68
2022-11-03T05:53:12.212Z,1006.68
2022-11-03T05:54:16.903Z,1006.66
2022-11-03T05:55:13.204Z,1006.64
2022-11-03T05:56:12.172Z,1006.66
2022-11-03T05:57:12.154Z,1006.64
2022-11-03T05:58:12.164Z,1006.62
2022-11-03T05:59:12.133Z,1006.56
2022-11-03T06:00:12.164Z,1006.56
2022-11-03T06:01:12.165Z,1006.56
2022-11-03T06:02:12.213Z,1006.56
2022-11-03T06:03:12.093Z,1006.56
2022-11-03T06:04:12.083Z,1006.50
2022-11-03T06:05:12.093Z,1006.50
2022-11-03T06:06:12.062Z,1006.49
2022-11-03T06:07:12.054Z,1006.50
2022-11-03T06:08:12.125Z,1006.52
2022-11-03T06:09:12.025Z,1006.53
2022-11-03T06:10:12.014Z,1006.48
2022-11-03T06:11:12.024Z,1006.45
2022-11-03T06:12:12.004Z,1006.49
2022-11-03T06:13:11.986Z,1006.48
2022-11-03T06:14:11.974Z,1006.46
2022-11-03T06:15:11.963Z,1006.42
2022-11-03T06:16:11.971Z,1006.46
2022-11-03T06:17:11.935Z,1006.50
2022-11-03T06:18:11.928Z,1006.44
2022-11-03T06:19:11.917Z,1006.47
2022-11-03T06:20:11.904Z,1006.42
2022-11-03T06:21:11.886Z,1006.45
2022-11-03T06:22:11.904Z,1006.46
2022-11-03T06:23:11.880Z,1006.43
2022-11-03T06:24:11.874Z,1006.37
2022-11-03T06:25:11.853Z,1006.44
2022-11-03T06:26:11.836Z,1006.41
2022-11-03T06:27:11.852Z,1006.40
2022-11-03T06:28:11.817Z,1006.33
2022-11-03T06:29:11.807Z,1006.32
2022-11-03T06:30:11.796Z,1006.28
2022-11-03T06:31:11.780Z,1006.22
2022-11-03T06:32:11.793Z,1006.29
2022-11-03T06:33:11.785Z,1006.23
2022-11-03T06:34:11.746Z,1006.27
2022-11-03T06:35:11.747Z,1006.25
2022-11-03T06:36:11.726Z,1006.26
2022-11-03T06:37:13.460Z,1006.23
2022-11-03T06:38:11.728Z,1006.23
2022-11-03T06:39:11.686Z,1006.24
2022-11-03T06:40:11.686Z,1006.21
2022-11-03T06:41:11.663Z,1006.25
2022-11-03T06:42:11.677Z,1006.26
2022-11-03T06:43:11.645Z,1006.29
2022-11-03T06:44:11.636Z,1006.30
2022-11-03T06:45:11.617Z,1006.26
2022-11-03T06:46:11.616Z,1006.26
2022-11-03T06:47:11.607Z,1006.24
2022-11-03T06:48:11.610Z,1006.26
2022-11-03T06:49:11.577Z,1006.20
2022-11-03T06:50:11.566Z,1006.21
2022-11-03T06:51:11.557Z,1006.14
2022-11-03T06:52:11.541Z,1006.15
2022-11-03T06:53:11.547Z,1006.16
2022-11-03T06:54:11.525Z,1006.20
2022-11-03T06:55:13.981Z,1006.21
2022-11-03T06:56:12.501Z,1006.18
2022-11-03T06:57:11.479Z,1006.17
2022-11-03T06:58:11.500Z,1006.15
2022-11-03T06:59:11.468Z,1006.14
2022-11-03T07:00:32.873Z,1006.13
2022-11-03T07:01:12.590Z,1006.11
2022-11-03T07:02:11.492Z,1006.03
2022-11-03T07:03:11.444Z,1006.01
2022-11-03T07:04:11.421Z,1005.96
2022-11-03T07:05:11.400Z,1006.01
2022-11-03T07:06:11.386Z,1006.03
2022-11-03T07:07:11.369Z,1006.03
2022-11-03T07:08:11.399Z,1006.03
2022-11-03T07:09:11.349Z,1006.03
2022-11-03T07:10:11.340Z,1006.01
2022-11-03T07:11:11.328Z,1005.98
2022-11-03T07:12:11.317Z,1005.94
2022-11-03T07:13:11.667Z,1005.93
2022-11-03T07:14:11.319Z,1005.90
2022-11-03T07:15:11.290Z,1005.88
2022-11-03T07:16:13.496Z,1005.87
2022-11-03T07:17:12.263Z,1005.85
2022-11-03T07:18:11.279Z,1005.84
2022-11-03T07:19:11.232Z,1005.76
2022-11-03T07:20:11.229Z,1005.72
2022-11-03T07:21:11.213Z,1005.73
2022-11-03T07:22:11.201Z,1005.70
2022-11-03T07:23:11.202Z,1005.71
2022-11-03T07:24:11.210Z,1005.70
2022-11-03T07:25:11.170Z,1005.69
2022-11-03T07:26:11.169Z,1005.66
2022-11-03T07:27:11.150Z,1005.69
2022-11-03T07:28:11.150Z,1005.71
2022-11-03T07:29:11.144Z,1005.70
2022-11-03T07:30:11.121Z,1005.67
2022-11-03T07:31:15.995Z,1005.70
2022-11-03T07:32:12.094Z,1005.72
2022-11-03T07:33:11.083Z,1005.64
2022-11-03T07:34:11.091Z,1005.68
2022-11-03T07:35:11.054Z,1005.67
2022-11-03T07:36:15.965Z,1005.65
2022-11-03T07:38:11.032Z,1005.68
2022-11-03T07:39:11.040Z,1005.64
2022-11-03T07:40:11.013Z,1005.65
2022-11-03T07:41:10.993Z,1005.58
2022-11-03T07:42:10.982Z,1005.61
2022-11-03T07:43:10.972Z,1005.57
2022-11-03T07:44:10.983Z,1005.55
2022-11-03T07:45:10.944Z,1005.63
2022-11-03T07:46:10.943Z,1005.60
2022-11-03T07:47:10.924Z,1005.60
2022-11-03T07:48:11.128Z,1005.54
2022-11-03T07:49:10.924Z,1005.60
2022-11-03T07:50:10.896Z,1005.59
2022-11-03T07:51:10.873Z,1005.53
2022-11-03T07:52:10.877Z,1005.56
2022-11-03T07:53:10.853Z,1005.46
2022-11-03T07:54:10.873Z,1005.42
2022-11-03T07:55:10.835Z,1005.40
2022-11-03T07:56:10.891Z,1005.39
2022-11-03T07:57:10.816Z,1005.38
2022-11-03T07:58:10.807Z,1005.37
2022-11-03T07:59:10.899Z,1005.42
2022-11-03T08:00:11.004Z,1005.39
2022-11-03T08:01:10.862Z,1005.36
2022-11-03T08:02:10.881Z,1005.38
2022-11-03T08:03:10.745Z,1005.34
2022-11-03T08:04:10.748Z,1005.33
2022-11-03T08:05:10.795Z,1005.35
2022-11-03T08:06:11.773Z,1005.31
2022-11-03T08:07:10.727Z,1005.26
2022-11-03T08:08:10.699Z,1005.30
2022-11-03T08:09:10.688Z,1005.25
2022-11-03T08:10:10.703Z,1005.24
2022-11-03T08:11:10.725Z,1005.21
2022-11-03T08:12:10.660Z,1005.25
2022-11-03T08:13:10.646Z,1005.20
2022-11-03T08:14:10.636Z,1005.18
2022-11-03T08:15:10.626Z,1005.18
2022-11-03T08:16:10.628Z,1005.20
2022-11-03T08:17:10.596Z,1005.15
2022-11-03T08:18:10.597Z,1005.12
2022-11-03T08:19:10.576Z,1005.11
2022-11-03T08:20:10.588Z,1005.15
2022-11-03T08:21:10.566Z,1005.15
2022-11-03T08:22:10.547Z,1005.12
2022-11-03T08:23:25.330Z,1005.09
2022-11-03T08:24:11.519Z,1005.07
2022-11-03T08:25:10.537Z,1005.08
2022-11-03T08:26:10.513Z,1005.02
2022-11-03T08:27:10.497Z,1005.05
2022-11-03T08:28:10.485Z,1005.08
2022-11-03T08:29:10.467Z,1005.07
2022-11-03T08:30:10.480Z,1005.04
2022-11-03T08:31:12.827Z,1005.01
2022-11-03T08:32:10.439Z,1004.98
2022-11-03T08:33:10.431Z,1005.01
2022-11-03T08:34:10.414Z,1005.02
2022-11-03T08:35:10.409Z,1005.00
2022-11-03T08:36:10.413Z,1004.93
2022-11-03T08:37:10.380Z,1004.90
2022-11-03T08:38:10.504Z,1004.93
2022-11-03T08:39:10.361Z,1004.90
2022-11-03T08:40:10.370Z,1004.91
2022-11-03T08:41:10.359Z,1004.90
2022-11-03T08:42:10.331Z,1004.90
2022-11-03T08:43:10.320Z,1004.88
2022-11-03T08:44:10.303Z,1004.84
2022-11-03T08:45:10.292Z,1004.80
2022-11-03T08:46:17.174Z,1004.84
2022-11-03T08:47:11.299Z,1004.75
2022-11-03T08:48:10.292Z,1004.68
2022-11-03T08:49:10.246Z,1004.70
2022-11-03T08:50:10.243Z,1004.71
2022-11-03T08:51:10.261Z,1004.71
2022-11-03T08:52:10.241Z,1004.75
2022-11-03T08:53:10.201Z,1004.70
2022-11-03T08:54:10.200Z,1004.68
2022-11-03T08:55:10.196Z,1004.68
2022-11-03T08:56:12.575Z,1004.70
2022-11-03T08:57:10.193Z,1004.65
2022-11-03T08:58:10.361Z,1004.66
2022-11-03T08:59:10.150Z,1004.61
2022-11-03T09:00:10.133Z,1004.63
2022-11-03T09:01:10.125Z,1004.61
2022-11-03T09:02:10.132Z,1004.67
2022-11-03T09:03:10.178Z,1004.61
2022-11-03T09:04:10.136Z,1004.61
2022-11-03T09:05:10.076Z,1004.59
2022-11-03T09:06:10.066Z,1004.60
2022-11-03T09:07:10.079Z,1004.59
2022-11-03T09:11:11.044Z,1004.45
2022-11-03T09:12:10.009Z,1004.42
2022-11-03T09:13:10.116Z,1004.47
2022-11-03T09:14:09.985Z,1004.42
2022-11-03T09:15:09.964Z,1004.41
2022-11-03T09:16:09.977Z,1004.41
2022-11-03T09:17:09.947Z,1004.38
2022-11-03T09:18:10.080Z,1004.38
2022-11-03T09:19:09.922Z,1004.30
2022-11-03T09:20:09.912Z,1004.34
2022-11-03T09:21:09.895Z,1004.33
2022-11-03T09:22:09.917Z,1004.37
2022-11-03T09:23:09.877Z,1004.35
2022-11-03T09:24:09.876Z,1004.30
2022-11-03T09:25:09.859Z,1004.33
2022-11-03T09:26:09.856Z,1004.32
2022-11-03T09:27:09.878Z,1004.28
2022-11-03T09:28:10.202Z,1004.27
2022-11-03T09:29:09.817Z,1004.28
2022-11-03T09:30:14.087Z,1004.31
2022-11-03T09:31:09.796Z,1004.25
2022-11-03T09:32:09.808Z,1004.32
2022-11-03T09:33:09.778Z,1004.23
2022-11-03T09:34:09.760Z,1004.22
2022-11-03T09:35:09.754Z,1004.20
2022-11-03T09:36:09.739Z,1004.11
2022-11-03T09:37:09.768Z,1004.15
2022-11-03T09:38:09.944Z,1004.12
2022-11-03T09:39:09.707Z,1004.10
2022-11-03T09:40:09.698Z,1004.11
2022-11-03T09:41:19.411Z,1004.08
2022-11-03T09:42:10.703Z,1004.07
2022-11-03T09:43:10.177Z,1004.06
2022-11-03T09:44:09.676Z,1004.03
2022-11-03T09:45:09.653Z,1004.00
2022-11-03T09:46:09.638Z,1003.97
2022-11-03T09:47:09.618Z,1003.96
2022-11-03T09:48:09.939Z,1003.89
2022-11-03T09:49:09.620Z,1003.87
2022-11-03T09:50:09.587Z,1003.85
2022-11-03T09:51:09.571Z,1003.83
2022-11-03T09:52:09.560Z,1003.82
2022-11-03T09:53:09.767Z,1003.83
2022-11-03T09:54:09.541Z,1003.76
2022-11-03T09:55:09.538Z,1003.79
2022-11-03T09:56:09.520Z,1003.79
2022-11-03T09:57:09.517Z,1003.72
2022-11-03T09:58:09.648Z,1003.71
2022-11-03T09:59:09.494Z,1003.70
2022-11-03T10:00:09.472Z,1003.67
2022-11-03T10:01:09.623Z,1003.67
2022-11-03T10:02:09.547Z,1003.64
2022-11-03T10:03:09.778Z,1003.61
2022-11-03T10:04:09.455Z,1003.63
2022-11-03T10:05:11.137Z,1003.57
2022-11-03T10:06:12.471Z,1003.57
2022-11-03T10:07:10.403Z,1003.60
2022-11-03T10:08:09.384Z,1003.54
2022-11-03T10:09:09.401Z,1003.51
2022-11-03T10:10:09.364Z,1003.50
2022-11-03T10:11:09.353Z,1003.44
2022-11-03T10:12:09.344Z,1003.43
2022-11-03T10:13:09.803Z,1003.41
2022-11-03T10:14:09.346Z,1003.38
2022-11-03T10:15:09.317Z,1003.37
2022-11-03T10:16:09.310Z,1003.37
2022-11-03T10:17:09.287Z,1003.26
2022-11-03T10:18:09.284Z,1003.19
2022-11-03T10:19:09.276Z,1003.19
2022-11-03T10:20:09.274Z,1003.15
2022-11-03T10:21:09.245Z,1003.17
2022-11-03T10:22:09.227Z,1003.11
2022-11-03T10:23:09.494Z,1003.09
2022-11-03T10:24:09.217Z,1003.08
2022-11-03T10:25:09.229Z,1003.10
2022-11-03T10:26:09.188Z,1003.04
2022-11-03T10:27:09.188Z,1003.01
2022-11-03T10:28:14.011Z,1003.02
2022-11-03T10:29:10.233Z,1002.98
2022-11-03T10:30:09.168Z,1002.89
2022-11-03T10:31:13.472Z,1002.92
2022-11-03T10:32:09.127Z,1002.96
2022-11-03T10:33:09.407Z,1002.87
2022-11-03T10:34:09.105Z,1002.92
2022-11-03T10:35:09.119Z,1002.88
2022-11-03T10:36:09.080Z,1002.88
2022-11-03T10:37:09.079Z,1002.88
2022-11-03T10:38:09.057Z,1002.87
2022-11-03T10:39:09.052Z,1002.86
2022-11-03T10:40:13.269Z,1002.82
2022-11-03T10:41:10.028Z,1002.83
2022-11-03T10:42:09.009Z,1002.80
2022-11-03T10:43:09.193Z,1002.82
2022-11-03T10:44:08.988Z,1002.78
2022-11-03T10:45:09.009Z,1002.80
2022-11-03T10:46:23.447Z,1002.73
2022-11-03T10:47:09.961Z,1002.75
2022-11-03T10:48:08.951Z,1002.72
2022-11-03T10:49:08.952Z,1002.75
2022-11-03T10:50:08.971Z,1002.74
2022-11-03T10:51:08.921Z,1002.69
2022-11-03T10:52:08.922Z,1002.64
2022-11-03T10:53:09.306Z,1002.67
2022-11-03T10:54:08.884Z,1002.64
2022-11-03T10:55:08.872Z,1002.57
2022-11-03T10:56:08.863Z,1002.59
2022-11-03T10:57:08.873Z,1002.51
2022-11-03T10:58:09.020Z,1002.45
2022-11-03T10:59:08.835Z,1002.47
2022-11-03T11:00:08.824Z,1002.41
2022-11-03T11:01:08.891Z,1002.39
2022-11-03T11:02:08.975Z,1002.37
2022-11-03T11:03:09.197Z,1002.30
2022-11-03T11:04:08.822Z,1002.35
2022-11-03T11:05:08.767Z,1002.27
2022-11-03T11:06:08.745Z,1002.22
2022-11-03T11:07:08.743Z,1002.23
2022-11-03T11:08:08.772Z,1002.12
2022-11-03T11:09:08.714Z,1002.14
2022-11-03T11:10:08.719Z,1002.11
2022-11-03T11:11:08.695Z,1002.07
2022-11-03T11:12:08.685Z,1002.04
2022-11-03T11:13:08.943Z,1002.01
2022-11-03T11:14:08.666Z,1002.04
2022-11-03T11:15:08.659Z,1002.05
2022-11-03T11:16:08.645Z,1002.03
2022-11-03T11:17:08.638Z,1002.09
2022-11-03T11:18:08.680Z,1002.04
2022-11-03T11:19:08.632Z,1002.01
2022-11-03T11:20:08.597Z,1001.96
2022-11-03T11:21:08.596Z,1001.93
2022-11-03T11:22:08.577Z,1001.95
2022-11-03T11:23:09.066Z,1001.87
2022-11-03T11:24:08.556Z,1001.87
2022-11-03T11:25:08.548Z,1001.86
2022-11-03T11:26:08.532Z,1001.75
2022-11-03T11:27:08.526Z,1001.75
2022-11-03T11:28:08.528Z,1001.70
2022-11-03T11:29:08.511Z,1001.63
2022-11-03T11:30:08.489Z,1001.58
2022-11-03T11:31:08.477Z,1001.61
2022-11-03T11:32:08.461Z,1001.57
2022-11-03T11:33:08.807Z,1001.54
2022-11-03T11:34:08.448Z,1001.54
2022-11-03T11:35:08.432Z,1001.46
2022-11-03T11:36:08.423Z,1001.46
2022-11-03T11:37:08.409Z,1001.45
2022-11-03T11:38:08.411Z,1001.60
2022-11-03T11:39:08.411Z,1001.65
2022-11-03T11:40:08.380Z,1001.63
2022-11-03T11:41:08.370Z,1001.58
2022-11-03T11:42:08.426Z,1001.58
2022-11-03T11:43:08.549Z,1001.59
2022-11-03T11:44:08.359Z,1001.53
2022-11-03T11:45:08.321Z,1001.59
2022-11-03T11:46:08.314Z,1001.47
2022-11-03T11:47:08.301Z,1001.45
2022-11-03T11:48:08.303Z,1001.47
2022-11-03T11:49:08.390Z,1001.44
2022-11-03T11:50:08.301Z,1001.45
2022-11-03T11:51:08.546Z,1001.41
2022-11-03T11:52:08.537Z,1001.36
2022-11-03T11:53:09.286Z,1001.33
2022-11-03T11:54:17.556Z,1001.27
2022-11-03T11:55:09.862Z,1001.31
2022-11-03T11:56:08.838Z,1001.27
2022-11-03T11:57:08.431Z,1001.27
2022-11-03T11:58:08.248Z,1001.25
2022-11-03T11:59:08.235Z,1001.20
2022-11-03T12:00:08.176Z,1001.24
2022-11-03T12:01:08.178Z,1001.18
2022-11-03T12:02:08.136Z,1001.15
2022-11-03T12:03:08.395Z,1001.15
2022-11-03T12:04:08.229Z,1001.07
2022-11-03T12:05:08.107Z,1001.03
2022-11-03T12:06:08.188Z,1000.97
2022-11-03T12:07:08.086Z,1000.93
2022-11-03T12:08:08.442Z,1000.94
2022-11-03T12:09:08.059Z,1000.93